Time;durP1;ratioP1;P1;durP2;ratioP2;P2;SDS_P1;SDS_P2;PMS_P1;PMS_P2;Temp;Humidity;BMP_temperature;BMP_pressure;BME280_temperature;BME280_humidity;BME280_pressure;Samples;Min_cycle;Max_cycle;Signal;HPM_P1;HPM_P2
2022/12/21 00:01:17;;;;;;;7.07;6.87;;;23.10;52.60;;;;;;5011508;28;20995;-56
2022/12/21 00:03:46;;;;;;;8.43;8.20;;;23.10;52.60;;;;;;5008064;28;20536;-51
2022/12/21 00:06:13;;;;;;;7.40;7.20;;;23.10;52.70;;;;;;5011407;28;20569;-56
2022/12/21 00:08:42;;;;;;;7.20;7.03;;;23.00;52.70;;;;;;5011542;28;20536;-57
2022/12/21 00:11:09;;;;;;;7.57;7.37;;;23.00;52.60;;;;;;5011645;28;20466;-58
2022/12/21 00:13:36;;;;;;;6.87;6.77;;;23.00;52.70;;;;;;5013404;28;20450;-60
2022/12/21 00:16:05;;;;;;;7.30;7.10;;;23.00;52.60;;;;;;4998846;28;20487;-55
2022/12/21 00:18:33;;;;;;;7.27;7.07;;;23.00;52.60;;;;;;4995387;28;20447;-59
2022/12/21 00:21:04;;;;;;;7.40;7.00;;;23.00;52.70;;;;;;4995140;28;20478;-59
2022/12/21 00:23:32;;;;;;;7.37;7.17;;;23.00;52.70;;;;;;4995419;28;20450;-58
2022/12/21 00:25:59;;;;;;;7.53;7.33;;;22.90;52.60;;;;;;5000588;28;20478;-59
2022/12/21 00:28:27;;;;;;;7.10;6.90;;;23.00;52.70;;;;;;5014697;28;20504;-62
2022/12/21 00:30:54;;;;;;;7.43;7.23;;;22.90;52.60;;;;;;5014477;28;20537;-60
2022/12/21 00:33:22;;;;;;;7.33;7.13;;;22.90;52.60;;;;;;5014905;28;20446;-59
2022/12/21 00:35:49;;;;;;;6.60;6.40;;;22.90;52.60;;;;;;5014824;28;20472;-60
2022/12/21 00:38:19;;;;;;;7.20;7.00;;;22.90;52.70;;;;;;5006635;28;20881;-60
2022/12/21 00:40:46;;;;;;;7.57;7.37;;;22.90;52.60;;;;;;4994617;28;20443;-56
2022/12/21 00:43:13;;;;;;;7.20;6.90;;;22.80;52.60;;;;;;4995164;28;20934;-61
2022/12/21 00:45:40;;;;;;;6.90;6.80;;;22.90;52.70;;;;;;4994788;28;20534;-57
2022/12/21 00:48:08;;;;;;;6.90;6.80;;;22.90;52.70;;;;;;5001012;28;20448;-61
2022/12/21 00:50:34;;;;;;;7.00;6.80;;;22.80;52.60;;;;;;5014438;28;20457;-56
2022/12/21 00:53:01;;;;;;;7.47;7.30;;;22.80;52.70;;;;;;5014229;28;20528;-60
2022/12/21 00:55:29;;;;;;;7.30;7.10;;;22.80;52.70;;;;;;5014341;28;20446;-56
2022/12/21 00:57:58;;;;;;;7.80;7.60;;;22.70;52.60;;;;;;4995584;28;20443;-58
2022/12/21 01:00:25;;;;;;;7.43;7.23;;;22.70;52.70;;;;;;4994379;28;20453;-58
2022/12/21 01:02:52;;;;;;;7.40;7.20;;;22.70;52.80;;;;;;4994645;28;20573;-59
2022/12/21 01:05:19;;;;;;;7.10;6.90;;;22.70;52.70;;;;;;5004891;28;20450;-58
2022/12/21 01:07:46;;;;;;;6.67;6.47;;;22.70;52.80;;;;;;5014026;28;20482;-57
2022/12/21 01:10:13;;;;;;;7.37;7.20;;;22.70;52.90;;;;;;5013947;28;20533;-58
2022/12/21 01:12:41;;;;;;;7.10;7.00;;;22.70;52.90;;;;;;5014035;28;20472;-59
2022/12/21 01:15:09;;;;;;;7.17;6.97;;;22.60;52.70;;;;;;5005189;28;20447;-60
2022/12/21 01:17:36;;;;;;;7.30;7.20;;;22.60;52.80;;;;;;4994340;28;20826;-60
2022/12/21 01:20:04;;;;;;;7.40;7.20;;;22.60;52.80;;;;;;4994118;28;20451;-59
2022/12/21 01:22:31;;;;;;;6.90;6.80;;;22.60;52.80;;;;;;4994249;28;20477;-60
2022/12/21 01:24:58;;;;;;;6.73;6.63;;;22.60;52.90;;;;;;4994030;28;20530;-58
2022/12/21 01:27:24;;;;;;;7.23;7.03;;;22.50;52.80;;;;;;5002519;28;20836;-60
2022/12/21 01:29:53;;;;;;;7.07;6.93;;;22.50;52.90;;;;;;5013527;28;20532;-57
2022/12/21 01:32:19;;;;;;;7.63;7.43;;;22.50;53.40;;;;;;5013779;28;20474;-58
2022/12/21 01:34:46;;;;;;;7.00;6.80;;;22.50;53.00;;;;;;5013556;28;20525;-57
2022/12/21 01:37:13;;;;;;;7.80;7.60;;;22.50;53.00;;;;;;5013751;28;20442;-55
2022/12/21 01:39:40;;;;;;;7.57;7.37;;;22.50;53.00;;;;;;5012760;28;20907;-56
2022/12/21 01:42:11;;;;;;;7.30;7.10;;;22.40;52.90;;;;;;5013298;28;20560;-59
2022/12/21 01:45:06;;;;;;;6.93;6.80;;;22.40;52.90;;;;;;5013471;28;20457;-59
2022/12/21 01:47:42;;;;;;;7.13;6.93;;;22.40;52.90;;;;;;5013482;28;20488;-58
2022/12/21 01:50:28;;;;;;;7.10;6.90;;;22.40;53.00;;;;;;5011459;28;20449;-58
2022/12/21 01:52:59;;;;;;;6.83;6.73;;;22.40;53.00;;;;;;5013588;28;20482;-50
2022/12/21 01:55:27;;;;;;;6.77;6.67;;;22.40;53.10;;;;;;5013184;28;21116;-50
2022/12/21 01:57:54;;;;;;;7.10;6.90;;;22.30;53.10;;;;;;5013274;28;20858;-54
2022/12/21 02:00:23;;;;;;;6.90;6.70;;;22.30;53.10;;;;;;4995866;28;20451;-50
2022/12/21 02:02:53;;;;;;;7.30;7.10;;;22.30;53.10;;;;;;4993404;28;20666;-53
2022/12/21 02:05:27;;;;;;;6.80;6.70;;;22.30;53.10;;;;;;4993808;28;20461;-52
2022/12/21 02:07:56;;;;;;;7.27;7.17;;;22.30;53.20;;;;;;4993730;28;20488;-50
2022/12/21 02:10:23;;;;;;;6.67;6.47;;;22.30;53.20;;;;;;5005447;28;20445;-51
2022/12/21 02:12:55;;;;;;;6.13;6.03;;;22.30;53.20;;;;;;4993169;28;20462;-52
2022/12/21 02:15:31;;;;;;;6.83;6.73;;;22.20;53.20;;;;;;4993439;28;20473;-50
2022/12/21 02:18:10;;;;;;;6.73;6.60;;;22.20;53.20;;;;;;4993310;28;20448;-50
2022/12/21 02:21:07;;;;;;;7.13;6.90;;;22.20;53.30;;;;;;4997108;28;20450;-53
2022/12/21 02:24:15;;;;;;;6.60;6.50;;;22.20;53.30;;;;;;4993326;28;20447;-51
2022/12/21 02:27:12;;;;;;;7.37;7.10;;;22.10;53.30;;;;;;4992307;28;20489;-51
2022/12/21 02:30:03;;;;;;;7.80;7.50;;;22.10;53.40;;;;;;4988021;28;20537;-54
2022/12/21 02:32:53;;;;;;;7.23;7.13;;;22.10;53.40;;;;;;5011269;28;20470;-50
2022/12/21 02:35:38;;;;;;;8.13;7.93;;;22.10;53.40;;;;;;5011570;28;20460;-52
2022/12/21 02:38:19;;;;;;;7.40;7.30;;;22.10;53.50;;;;;;4992873;28;20530;-51
2022/12/21 02:40:55;;;;;;;7.70;7.60;;;22.00;53.50;;;;;;4992266;28;20818;-50
2022/12/21 02:46:21;;;;;;;7.60;7.50;;;22.00;53.50;;;;;;4992874;28;20423;-54
2022/12/21 02:48:57;;;;;;;7.67;7.50;;;22.00;53.60;;;;;;4992722;28;20443;-51
2022/12/21 02:51:31;;;;;;;8.17;7.97;;;22.00;53.70;;;;;;4992340;28;20470;-52
2022/12/21 02:53:58;;;;;;;8.00;7.80;;;22.00;53.70;;;;;;4992556;28;20958;-55
2022/12/21 02:56:25;;;;;;;8.20;8.00;;;22.00;53.70;;;;;;4992472;28;20470;-50
2022/12/21 02:58:51;;;;;;;7.50;7.40;;;21.90;53.60;;;;;;4992596;28;20439;-51
2022/12/21 03:01:35;;;;;;;8.00;7.80;;;21.90;53.80;;;;;;4992111;28;20994;-50
2022/12/21 03:04:30;;;;;;;7.73;7.53;;;21.90;53.80;;;;;;4992360;28;20442;-52
2022/12/21 03:07:12;;;;;;;7.57;7.37;;;21.90;53.70;;;;;;4992662;28;20479;-51
2022/12/21 03:09:49;;;;;;;7.10;7.00;;;21.90;53.70;;;;;;4992032;28;20450;-51
2022/12/21 03:12:26;;;;;;;7.43;7.23;;;21.90;53.70;;;;;;4992329;28;20858;-50
2022/12/21 03:14:59;;;;;;;7.27;7.07;;;21.90;53.80;;;;;;4992445;28;20446;-52
2022/12/21 03:17:32;;;;;;;7.80;7.60;;;21.90;53.80;;;;;;4992254;28;20447;-54
2022/12/21 03:20:09;;;;;;;6.50;6.40;;;21.80;53.70;;;;;;4991794;28;20451;-50
2022/12/21 03:22:43;;;;;;;7.13;6.93;;;21.80;53.70;;;;;;4992528;28;20497;-52
2022/12/21 03:25:14;;;;;;;6.47;6.37;;;21.90;53.90;;;;;;4992167;28;20451;-51
2022/12/21 03:27:46;;;;;;;6.90;6.80;;;21.80;53.80;;;;;;4992351;28;20486;-57
2022/12/21 03:30:16;;;;;;;7.30;7.10;;;21.80;53.90;;;;;;5007074;28;20804;-56
2022/12/21 03:32:47;;;;;;;6.80;6.70;;;21.80;53.80;;;;;;5007202;28;20889;-54
2022/12/21 03:35:21;;;;;;;7.40;7.20;;;21.80;53.90;;;;;;5011827;28;20460;-57
2022/12/21 03:37:50;;;;;;;7.23;7.03;;;21.80;53.90;;;;;;5012066;28;20456;-56
2022/12/21 03:40:21;;;;;;;7.20;7.00;;;21.70;53.90;;;;;;5011562;28;20442;-58
2022/12/21 03:42:54;;;;;;;6.63;6.53;;;21.80;54.00;;;;;;5008508;28;20981;-56
2022/12/21 03:45:24;;;;;;;6.37;6.27;;;21.70;54.00;;;;;;4992315;28;20443;-58
2022/12/21 03:47:57;;;;;;;6.60;6.50;;;21.70;54.10;;;;;;4995337;28;20851;-59
2022/12/21 03:50:31;;;;;;;7.27;7.13;;;21.70;54.00;;;;;;4996052;28;20455;-56
2022/12/21 03:53:05;;;;;;;6.40;6.30;;;21.70;54.10;;;;;;4996270;28;20538;-57
2022/12/21 03:55:37;;;;;;;7.10;6.90;;;21.70;54.10;;;;;;4997347;28;20471;-51
2022/12/21 03:58:04;;;;;;;6.67;6.57;;;21.70;54.10;;;;;;5000121;28;20443;-50
2022/12/21 04:00:40;;;;;;;6.60;6.50;;;21.70;54.10;;;;;;4995618;28;20446;-51
2022/12/21 04:03:13;;;;;;;6.30;6.20;;;21.60;54.10;;;;;;4995876;28;20454;-55
2022/12/21 04:05:49;;;;;;;6.73;6.63;;;21.60;54.20;;;;;;4995750;28;20455;-56
2022/12/21 04:08:16;;;;;;;7.20;7.00;;;21.60;54.20;;;;;;5006848;28;20480;-56
2022/12/21 04:10:43;;;;;;;6.87;6.73;;;21.60;54.20;;;;;;5014873;28;20473;-54
2022/12/21 04:13:09;;;;;;;6.67;6.57;;;21.60;54.30;;;;;;5015101;28;20449;-56
2022/12/21 04:19:57;;;;;;;6.70;6.60;;;21.60;54.30;;;;;;5015202;28;20202;-53
2022/12/21 04:21:07;;;;;;;7.07;6.87;;;21.60;54.90;;;;;;4995678;28;20880;-51
2022/12/21 04:29:03;;;;;;;6.67;6.57;;;21.50;55.00;;;;;;5000394;28;21011;-52
2022/12/21 04:31:30;;;;;;;6.90;6.80;;;21.50;54.60;;;;;;5014379;28;20461;-51
2022/12/21 04:33:58;;;;;;;7.13;7.00;;;21.50;54.60;;;;;;4995477;28;20472;-54
2022/12/21 04:39:11;;;;;;;7.13;7.03;;;21.50;54.60;;;;;;4995053;28;20794;-50
2022/12/21 04:41:38;;;;;;;7.40;7.20;;;21.50;54.60;;;;;;4995895;28;20531;-54
2022/12/21 04:44:05;;;;;;;8.10;7.90;;;21.50;54.70;;;;;;4995214;28;20886;-50
2022/12/21 04:46:32;;;;;;;7.20;7.10;;;21.50;54.80;;;;;;4995332;28;20537;-53
2022/12/21 04:48:59;;;;;;;7.70;7.50;;;21.50;54.90;;;;;;4994968;28;20493;-50
2022/12/21 04:51:27;;;;;;;7.50;7.30;;;21.50;54.90;;;;;;4994831;28;20479;-51
2022/12/21 04:53:54;;;;;;;7.30;7.20;;;21.50;55.00;;;;;;4995793;28;20858;-50
2022/12/21 04:56:22;;;;;;;7.13;7.03;;;21.40;55.00;;;;;;4994997;28;20485;-51
2022/12/21 04:58:49;;;;;;;7.60;7.40;;;21.40;55.60;;;;;;4993684;28;21073;-51
2022/12/21 05:01:18;;;;;;;7.67;7.47;;;21.40;55.00;;;;;;4994526;28;20467;-50
2022/12/21 05:03:45;;;;;;;7.67;7.47;;;21.40;55.00;;;;;;4994566;28;20537;-51
2022/12/21 05:06:13;;;;;;;7.33;7.23;;;21.40;55.00;;;;;;5010804;28;20450;-51
2022/12/21 05:08:41;;;;;;;7.90;7.70;;;21.40;55.00;;;;;;5014103;28;20486;-51
2022/12/21 05:11:10;;;;;;;7.67;7.47;;;21.40;55.00;;;;;;5013912;28;20835;-53
2022/12/21 05:13:36;;;;;;;7.80;7.60;;;21.40;55.00;;;;;;5014044;28;20442;-52
2022/12/21 05:16:04;;;;;;;7.77;7.60;;;21.40;55.10;;;;;;4995635;28;20455;-52
2022/12/21 05:18:31;;;;;;;7.33;7.23;;;21.40;55.20;;;;;;4994614;28;20810;-51
2022/12/21 05:20:57;;;;;;;7.57;7.47;;;21.30;55.10;;;;;;4993913;28;20550;-52
2022/12/21 05:23:24;;;;;;;8.00;7.80;;;21.30;55.00;;;;;;4994231;28;20513;-52
2022/12/21 05:25:52;;;;;;;9.13;8.17;;;21.40;55.00;;;;;;4996228;28;20545;-57
2022/12/21 05:28:19;;;;;;;9.53;9.10;;;21.40;55.70;;;;;;5013714;28;20856;-54
2022/12/21 05:30:46;;;;;;;11.50;10.80;;;21.40;56.10;;;;;;5009316;28;20538;-54
2022/12/21 05:33:13;;;;;;;12.07;10.87;;;21.40;57.20;;;;;;4994567;28;21021;-50
2022/12/21 05:35:40;;;;;;;12.73;11.60;;;21.40;56.90;;;;;;4994429;28;20503;-53
2022/12/21 05:38:07;;;;;;;12.07;11.03;;;21.40;56.90;;;;;;4997698;28;20445;-50
2022/12/21 05:40:34;;;;;;;11.70;10.73;;;21.40;57.20;;;;;;5014121;28;20941;-57
2022/12/21 05:43:03;;;;;;;17.67;12.57;;;21.40;58.10;;;;;;5013979;28;20520;-48
2022/12/21 05:45:29;;;;;;;12.33;11.10;;;21.40;59.30;;;;;;5011833;28;20457;-48
2022/12/21 05:47:56;;;;;;;12.43;11.17;;;21.40;59.30;;;;;;4996597;28;21096;-49
2022/12/21 05:50:24;;;;;;;12.20;11.07;;;21.40;59.90;;;;;;4993256;28;20919;-49
2022/12/21 05:52:51;;;;;;;12.20;11.10;;;21.40;59.10;;;;;;4994026;28;20475;-48
2022/12/21 05:55:19;;;;;;;12.40;11.40;;;21.40;59.00;;;;;;4994063;28;21017;-50
2022/12/21 05:57:46;;;;;;;10.63;9.97;;;21.30;58.80;;;;;;4993902;28;20553;-50
2022/12/21 06:00:15;;;;;;;15.03;11.70;;;21.40;58.70;;;;;;4993306;28;20537;-50
2022/12/21 06:02:42;;;;;;;11.67;10.93;;;21.30;58.50;;;;;;4993792;28;20471;-49
2022/12/21 06:05:09;;;;;;;12.70;11.50;;;21.30;58.30;;;;;;4993328;28;20451;-49
2022/12/21 06:07:36;;;;;;;13.10;11.97;;;21.30;58.20;;;;;;4993504;28;20454;-52
2022/12/21 06:10:03;;;;;;;11.90;11.17;;;21.30;58.00;;;;;;4993115;28;20526;-49
2022/12/21 06:12:31;;;;;;;13.33;12.00;;;21.30;58.00;;;;;;4993213;28;20481;-49
2022/12/21 06:14:58;;;;;;;12.50;11.50;;;21.30;57.90;;;;;;4993663;28;20454;-51
2022/12/21 06:17:28;;;;;;;12.00;11.00;;;21.30;57.80;;;;;;4994354;28;20542;-51
2022/12/21 06:19:56;;;;;;;12.53;11.37;;;21.30;57.70;;;;;;4993517;28;20924;-53
2022/12/21 06:22:23;;;;;;;12.70;11.60;;;21.30;57.60;;;;;;4993282;28;20974;-54
2022/12/21 06:24:50;;;;;;;12.40;11.30;;;21.30;58.10;;;;;;4993897;28;20538;-51
2022/12/21 06:27:18;;;;;;;12.53;11.43;;;21.20;58.10;;;;;;4993423;28;20890;-54
2022/12/21 06:29:45;;;;;;;12.67;11.80;;;21.20;57.50;;;;;;4994399;28;20483;-51
2022/12/21 06:32:12;;;;;;;10.43;9.93;;;21.20;57.40;;;;;;4993565;28;20466;-55
2022/12/21 06:34:40;;;;;;;11.60;11.03;;;21.20;57.40;;;;;;4993041;28;20469;-49
2022/12/21 06:37:09;;;;;;;11.83;11.20;;;21.20;57.90;;;;;;4992843;28;21014;-49
2022/12/21 06:39:36;;;;;;;10.13;9.63;;;21.20;57.30;;;;;;4993244;28;20447;-53
2022/12/21 06:42:02;;;;;;;11.10;10.53;;;21.20;57.20;;;;;;4993047;28;20490;-57
2022/12/21 06:44:29;;;;;;;11.50;10.93;;;21.20;57.10;;;;;;4993946;28;20443;-52
2022/12/21 06:46:56;;;;;;;11.20;10.20;;;21.20;57.10;;;;;;4993064;28;20891;-49
2022/12/21 06:49:23;;;;;;;10.97;10.27;;;21.20;57.10;;;;;;4992861;28;20574;-57
2022/12/21 06:51:51;;;;;;;10.73;10.23;;;21.20;57.10;;;;;;4993968;28;20475;-52
2022/12/21 06:54:18;;;;;;;12.13;11.23;;;21.20;57.10;;;;;;4992788;28;20534;-49
2022/12/21 06:56:45;;;;;;;11.07;10.40;;;21.10;56.90;;;;;;4992555;28;20927;-51
2022/12/21 06:59:12;;;;;;;10.93;10.40;;;21.10;56.90;;;;;;4993080;28;20454;-57
2022/12/21 07:01:39;;;;;;;12.17;11.40;;;21.10;56.90;;;;;;4992966;28;20467;-48
2022/12/21 07:04:05;;;;;;;11.77;11.03;;;21.10;56.70;;;;;;4992388;28;20949;-49
2022/12/21 07:06:33;;;;;;;11.00;10.37;;;21.10;56.80;;;;;;4992598;28;20563;-53
2022/12/21 07:09:01;;;;;;;11.43;10.60;;;21.10;56.80;;;;;;4992686;28;20487;-57
2022/12/21 07:11:29;;;;;;;11.70;10.60;;;21.10;56.70;;;;;;4992243;28;20558;-48
2022/12/21 07:13:56;;;;;;;10.97;10.47;;;21.10;56.70;;;;;;4992735;28;20817;-54
2022/12/21 07:16:24;;;;;;;10.83;10.27;;;21.10;56.70;;;;;;4993592;28;20525;-51
2022/12/21 07:18:51;;;;;;;10.87;10.47;;;21.10;56.60;;;;;;4993073;28;20471;-49
2022/12/21 07:21:19;;;;;;;9.80;9.50;;;21.10;56.60;;;;;;4992462;28;20459;-49
2022/12/21 07:23:47;;;;;;;10.23;9.73;;;21.10;56.60;;;;;;4992669;28;20853;-48
2022/12/21 07:26:16;;;;;;;11.70;10.90;;;21.00;56.50;;;;;;4992358;28;20443;-53
2022/12/21 07:28:45;;;;;;;11.20;10.60;;;21.00;56.50;;;;;;4994944;28;20992;-58
2022/12/21 07:31:16;;;;;;;10.40;9.80;;;21.00;56.40;;;;;;5012012;28;20512;-49
2022/12/21 07:33:43;;;;;;;10.00;9.60;;;21.00;56.40;;;;;;5011780;28;20521;-49
2022/12/21 07:36:10;;;;;;;10.70;10.23;;;21.00;56.30;;;;;;5012600;28;20456;-51
2022/12/21 07:38:39;;;;;;;10.17;9.73;;;21.00;56.40;;;;;;5012174;28;20484;-54
2022/12/21 07:41:08;;;;;;;10.53;10.03;;;21.00;56.30;;;;;;5011599;28;20837;-53
2022/12/21 07:43:37;;;;;;;10.83;10.33;;;21.00;56.20;;;;;;5012765;28;20446;-53
2022/12/21 07:46:04;;;;;;;10.00;9.70;;;21.00;56.30;;;;;;5012514;28;20917;-54
2022/12/21 07:48:31;;;;;;;10.53;10.03;;;21.00;56.20;;;;;;5012003;28;20495;-49
2022/12/21 07:51:05;;;;;;;10.17;9.70;;;21.00;56.20;;;;;;5011430;28;20466;-57
2022/12/21 07:53:33;;;;;;;10.57;9.77;;;21.00;56.10;;;;;;4999675;28;20466;-54
2022/12/21 07:56:00;;;;;;;9.77;9.30;;;20.90;56.00;;;;;;5011596;28;20449;-55
2022/12/21 07:58:27;;;;;;;11.40;10.80;;;20.90;56.00;;;;;;5011507;28;20442;-56
2022/12/21 08:00:56;;;;;;;9.93;9.37;;;20.90;56.00;;;;;;5011426;28;20442;-56
2022/12/21 08:03:22;;;;;;;10.67;9.97;;;20.90;56.00;;;;;;4992007;28;20474;-56
2022/12/21 08:05:53;;;;;;;9.67;9.37;;;20.90;55.90;;;;;;4991830;28;20887;-55
2022/12/21 08:08:20;;;;;;;9.50;8.90;;;20.90;55.90;;;;;;4991850;28;20488;-55
2022/12/21 08:10:47;;;;;;;9.90;9.50;;;20.90;55.90;;;;;;4991684;28;20541;-57
2022/12/21 08:13:14;;;;;;;10.27;9.77;;;20.90;55.90;;;;;;4991688;28;20557;-55
2022/12/21 08:15:41;;;;;;;9.63;9.23;;;20.90;55.90;;;;;;4991989;28;20998;-55
2022/12/21 08:18:09;;;;;;;8.80;8.60;;;20.90;55.90;;;;;;4991805;28;20707;-53
2022/12/21 08:20:36;;;;;;;9.33;9.00;;;20.90;55.80;;;;;;4991483;28;20455;-56
2022/12/21 08:23:03;;;;;;;9.47;9.17;;;20.90;55.90;;;;;;4991872;28;20569;-56
2022/12/21 08:25:30;;;;;;;10.20;9.70;;;20.90;55.90;;;;;;4991747;28;20449;-58
2022/12/21 08:27:57;;;;;;;10.00;9.60;;;20.90;55.90;;;;;;4991774;28;21028;-56
2022/12/21 08:30:24;;;;;;;9.70;9.40;;;20.90;55.80;;;;;;4975000;28;20480;-55
2022/12/21 08:32:51;;;;;;;10.07;9.67;;;20.80;55.80;;;;;;4971988;28;20477;-59
2022/12/21 08:35:19;;;;;;;9.53;9.17;;;20.80;55.80;;;;;;4975910;28;20443;-55
2022/12/21 08:37:46;;;;;;;10.40;10.00;;;20.80;55.70;;;;;;4975717;28;20451;-53
2022/12/21 08:40:13;;;;;;;9.63;9.30;;;20.80;55.70;;;;;;4975433;28;20875;-54
2022/12/21 08:42:40;;;;;;;9.60;9.30;;;20.80;55.60;;;;;;4975511;28;20468;-56
2022/12/21 08:45:08;;;;;;;9.77;9.40;;;20.80;55.60;;;;;;4975532;28;20458;-55
2022/12/21 08:47:35;;;;;;;9.70;9.40;;;20.80;55.60;;;;;;4975422;28;20454;-56
2022/12/21 08:50:02;;;;;;;9.93;9.63;;;20.80;55.60;;;;;;4975174;28;21148;-56
2022/12/21 08:52:30;;;;;;;9.80;9.50;;;20.80;55.50;;;;;;4997834;28;20573;-55
2022/12/21 08:54:57;;;;;;;9.63;9.33;;;20.80;55.60;;;;;;5014318;28;21041;-59
2022/12/21 08:57:24;;;;;;;9.83;9.43;;;20.80;55.50;;;;;;5014450;28;20450;-54
2022/12/21 08:59:51;;;;;;;10.10;9.80;;;20.80;55.60;;;;;;5014185;28;20618;-54
2022/12/21 09:02:18;;;;;;;9.40;9.13;;;20.80;55.50;;;;;;5014186;28;20528;-55
2022/12/21 09:04:44;;;;;;;9.07;8.80;;;20.80;55.50;;;;;;5014263;28;20529;-53
2022/12/21 09:07:11;;;;;;;9.80;9.40;;;20.80;55.40;;;;;;5014391;28;20537;-55
2022/12/21 09:09:39;;;;;;;9.60;9.30;;;20.80;55.40;;;;;;5013808;28;20482;-55
2022/12/21 09:12:07;;;;;;;9.50;9.20;;;20.70;55.40;;;;;;5014135;28;20468;-55
2022/12/21 09:14:33;;;;;;;10.13;9.73;;;20.70;55.30;;;;;;5013949;28;20438;-55
2022/12/21 09:17:00;;;;;;;10.07;9.77;;;20.70;55.30;;;;;;5013885;28;20521;-53
2022/12/21 09:19:27;;;;;;;9.23;8.93;;;20.70;55.30;;;;;;5013714;28;20541;-53
2022/12/21 09:21:54;;;;;;;9.30;9.00;;;20.70;55.90;;;;;;5013731;28;20466;-53
2022/12/21 09:24:21;;;;;;;8.70;8.50;;;20.70;55.40;;;;;;5013793;28;20453;-52
2022/12/21 09:26:49;;;;;;;9.20;8.80;;;20.70;55.30;;;;;;5013637;28;20945;-55
2022/12/21 09:29:16;;;;;;;8.93;8.63;;;20.70;55.20;;;;;;5013332;28;20572;-53
2022/12/21 09:31:43;;;;;;;9.03;8.73;;;20.70;55.20;;;;;;5013459;28;20553;-52
2022/12/21 09:34:10;;;;;;;9.77;9.47;;;20.70;55.20;;;;;;5013747;28;20864;-55
2022/12/21 09:36:37;;;;;;;9.13;8.87;;;20.70;55.20;;;;;;5013544;28;20442;-52
2022/12/21 09:39:04;;;;;;;9.50;9.20;;;20.70;55.20;;;;;;5013373;28;20529;-57
2022/12/21 09:41:44;;;;;;;9.57;9.30;;;20.70;55.20;;;;;;5013309;28;20565;-53
2022/12/21 09:44:35;;;;;;;9.50;9.17;;;20.70;55.10;;;;;;5013041;28;20445;-54
2022/12/21 09:47:05;;;;;;;9.40;9.10;;;20.70;55.10;;;;;;5013560;28;20446;-53
2022/12/21 09:49:39;;;;;;;9.70;9.40;;;20.70;55.10;;;;;;5013041;28;20562;-54
2022/12/21 09:52:14;;;;;;;9.17;8.87;;;20.70;55.10;;;;;;5013113;28;20477;-53
2022/12/21 09:54:46;;;;;;;9.23;8.83;;;20.60;55.00;;;;;;5013323;28;20540;-53
2022/12/21 09:57:14;;;;;;;9.20;8.90;;;20.60;55.50;;;;;;5013157;28;20533;-53
2022/12/21 09:59:42;;;;;;;9.37;8.87;;;20.60;54.90;;;;;;5012875;28;20442;-57
2022/12/21 10:02:22;;;;;;;8.93;8.73;;;20.60;54.90;;;;;;5012921;28;20545;-53
2022/12/21 10:05:02;;;;;;;9.13;8.87;;;20.60;54.90;;;;;;5013096;28;20445;-52
2022/12/21 10:07:56;;;;;;;10.37;9.97;;;20.60;54.90;;;;;;5013080;28;20446;-53
2022/12/21 10:10:29;;;;;;;9.63;9.23;;;20.60;54.90;;;;;;5012719;28;20569;-55
2022/12/21 10:13:05;;;;;;;9.57;9.27;;;20.60;54.90;;;;;;5012886;28;20478;-52
2022/12/21 10:15:43;;;;;;;10.60;10.30;;;20.60;54.90;;;;;;5012913;28;20452;-56
2022/12/21 10:18:15;;;;;;;10.10;9.77;;;20.60;54.90;;;;;;5012886;28;20816;-52
2022/12/21 10:20:53;;;;;;;10.70;10.20;;;20.60;54.90;;;;;;5012875;28;20445;-56
2022/12/21 10:23:24;;;;;;;9.50;9.30;;;20.60;54.90;;;;;;5012672;28;20531;-53
2022/12/21 10:25:56;;;;;;;9.50;9.20;;;20.50;54.70;;;;;;5012675;28;20790;-58
2022/12/21 10:28:35;;;;;;;9.50;9.30;;;20.50;54.80;;;;;;5012709;28;20810;-55
2022/12/21 10:31:05;;;;;;;9.37;9.13;;;20.50;54.80;;;;;;5012307;28;20489;-59
2022/12/21 10:33:36;;;;;;;9.83;9.53;;;20.50;54.80;;;;;;5012617;28;20550;-53
2022/12/21 10:36:05;;;;;;;9.80;9.50;;;20.50;54.70;;;;;;5012500;28;20453;-55
2022/12/21 10:38:34;;;;;;;9.60;9.20;;;20.50;54.60;;;;;;5012472;28;20452;-55
2022/12/21 10:41:03;;;;;;;9.80;9.50;;;20.50;54.60;;;;;;5012206;28;20868;-56
2022/12/21 10:43:34;;;;;;;9.87;9.57;;;20.50;54.60;;;;;;5012365;28;20448;-54
2022/12/21 10:46:02;;;;;;;9.13;8.93;;;20.50;54.60;;;;;;5012480;28;20446;-54
2022/12/21 10:48:29;;;;;;;9.77;9.47;;;20.50;54.60;;;;;;5012271;28;20442;-57
2022/12/21 10:51:06;;;;;;;9.40;9.10;;;20.50;54.50;;;;;;5012000;28;20572;-56
2022/12/21 10:53:32;;;;;;;9.63;9.33;;;20.50;54.40;;;;;;5012196;28;20937;-55
2022/12/21 10:56:00;;;;;;;9.83;9.60;;;20.50;54.40;;;;;;5011537;28;20524;-55
2022/12/21 10:58:30;;;;;;;9.80;9.40;;;20.50;54.40;;;;;;5012052;28;20444;-55
2022/12/21 11:01:01;;;;;;;10.07;9.77;;;20.50;54.40;;;;;;5011974;28;20441;-57
2022/12/21 11:03:31;;;;;;;9.60;9.30;;;20.50;54.40;;;;;;5012163;28;20449;-59
2022/12/21 11:05:59;;;;;;;10.10;9.80;;;20.50;54.40;;;;;;5012125;28;20852;-57
2022/12/21 11:08:28;;;;;;;9.63;9.30;;;20.50;54.30;;;;;;5011977;28;20446;-58
2022/12/21 11:10:58;;;;;;;9.97;9.67;;;20.50;54.40;;;;;;5011668;28;20989;-58
2022/12/21 11:13:27;;;;;;;9.63;9.43;;;20.50;54.40;;;;;;5011798;28;20469;-55
2022/12/21 11:15:59;;;;;;;9.13;8.83;;;20.50;54.40;;;;;;5011809;28;20456;-56
2022/12/21 11:18:35;;;;;;;8.77;8.57;;;20.40;54.30;;;;;;5011928;28;20817;-57
2022/12/21 11:21:04;;;;;;;8.33;8.13;;;20.40;54.30;;;;;;5011539;28;20945;-56
2022/12/21 11:23:31;;;;;;;9.23;8.83;;;20.40;54.30;;;;;;5011900;28;20446;-59
2022/12/21 11:26:00;;;;;;;8.70;8.50;;;20.40;54.30;;;;;;5011788;28;20925;-56
2022/12/21 11:28:27;;;;;;;9.27;8.97;;;20.40;54.30;;;;;;5011633;28;20454;-56
2022/12/21 11:31:01;;;;;;;9.80;9.50;;;20.40;54.30;;;;;;5011434;28;20488;-57
2022/12/21 11:33:29;;;;;;;9.03;8.83;;;20.40;54.30;;;;;;5011756;28;20541;-55
2022/12/21 11:36:13;;;;;;;9.63;9.23;;;20.40;54.30;;;;;;5011761;28;20452;-56
2022/12/21 11:38:40;;;;;;;9.63;9.33;;;20.40;54.30;;;;;;5011763;28;20457;-58
2022/12/21 11:41:22;;;;;;;9.10;8.90;;;20.40;54.20;;;;;;5011577;28;20688;-60
2022/12/21 11:43:51;;;;;;;9.50;9.10;;;20.40;54.30;;;;;;5011507;28;20448;-54
2022/12/21 11:46:37;;;;;;;8.90;8.70;;;20.40;54.30;;;;;;5011668;28;20447;-56
2022/12/21 11:49:20;;;;;;;9.43;9.23;;;20.40;54.40;;;;;;5011460;28;20449;-56
2022/12/21 11:51:56;;;;;;;9.20;9.00;;;20.40;54.30;;;;;;5011406;28;20586;-56
2022/12/21 11:54:37;;;;;;;10.00;9.77;;;20.40;54.30;;;;;;5011845;28;20446;-52
2022/12/21 11:57:14;;;;;;;9.60;9.30;;;20.40;54.30;;;;;;5011473;28;20940;-56
2022/12/21 12:00:03;;;;;;;9.63;9.33;;;20.30;54.20;;;;;;5011401;28;20456;-60
2022/12/21 12:03:05;;;;;;;9.07;8.87;;;20.30;54.20;;;;;;5011458;28;20469;-57
2022/12/21 12:05:42;;;;;;;9.50;9.20;;;20.40;54.30;;;;;;5011616;28;20441;-59
2022/12/21 12:08:19;;;;;;;8.70;8.50;;;20.30;54.10;;;;;;5013532;28;20448;-56
2022/12/21 12:11:11;;;;;;;9.43;9.13;;;20.30;54.10;;;;;;5014950;28;20491;-59
2022/12/21 12:13:52;;;;;;;10.73;9.90;;;20.30;54.20;;;;;;5008688;28;20948;-56
2022/12/21 12:16:26;;;;;;;9.20;8.90;;;20.30;54.20;;;;;;5015146;28;20533;-57
2022/12/21 12:19:00;;;;;;;9.60;9.40;;;20.30;54.20;;;;;;5014844;28;20446;-60
2022/12/21 12:21:38;;;;;;;9.00;8.70;;;20.30;54.20;;;;;;5015078;28;20823;-54
2022/12/21 12:24:46;;;;;;;9.63;9.33;;;20.30;54.10;;;;;;5015037;28;20507;-57
2022/12/21 12:27:30;;;;;;;9.23;9.03;;;20.30;54.10;;;;;;5008286;28;20461;-57
2022/12/21 12:30:05;;;;;;;9.13;8.93;;;20.30;54.00;;;;;;5014593;28;20484;-59
2022/12/21 12:32:43;;;;;;;9.53;9.33;;;20.30;54.00;;;;;;5014780;28;20500;-60
2022/12/21 12:35:35;;;;;;;9.20;8.90;;;20.30;54.10;;;;;;5015079;28;21068;-61
2022/12/21 12:38:14;;;;;;;9.13;8.90;;;20.30;54.00;;;;;;5006627;28;20461;-56
2022/12/21 12:40:53;;;;;;;8.67;8.40;;;20.30;54.00;;;;;;5014531;28;20441;-60
2022/12/21 12:43:31;;;;;;;8.77;8.57;;;20.30;54.00;;;;;;5014522;28;20474;-59
2022/12/21 12:46:08;;;;;;;8.60;8.40;;;20.30;54.00;;;;;;5014584;28;20448;-58
2022/12/21 12:48:46;;;;;;;8.40;8.20;;;20.20;54.00;;;;;;5014754;28;20442;-58
2022/12/21 12:51:21;;;;;;;8.80;8.50;;;20.30;54.00;;;;;;5014286;28;20512;-54
2022/12/21 12:53:56;;;;;;;8.80;8.60;;;20.20;53.90;;;;;;5014664;28;20940;-56
2022/12/21 12:56:32;;;;;;;9.60;9.40;;;20.20;54.40;;;;;;5014376;28;20473;-55
2022/12/21 12:59:04;;;;;;;9.87;9.47;;;20.20;53.90;;;;;;5014222;28;20540;-59
2022/12/21 13:01:37;;;;;;;9.37;9.07;;;20.20;53.90;;;;;;5014175;28;20833;-58
2022/12/21 13:04:17;;;;;;;9.07;8.87;;;20.20;53.90;;;;;;5014303;28;20452;-56
2022/12/21 13:06:51;;;;;;;8.40;8.20;;;20.20;53.90;;;;;;5014148;28;20817;-60
2022/12/21 13:09:31;;;;;;;9.20;9.00;;;20.20;53.90;;;;;;5014137;28;20454;-56
2022/12/21 13:12:10;;;;;;;8.57;8.37;;;20.20;53.90;;;;;;5013947;28;20454;-56
2022/12/21 13:14:42;;;;;;;9.00;8.80;;;20.20;53.90;;;;;;5014108;28;20449;-54
2022/12/21 13:17:16;;;;;;;8.77;8.57;;;20.20;53.90;;;;;;5014025;28;20947;-58